Weather at Asyut International Airport

Public forecast

Using degrees Celsius for public forecast. Weather courtesy of forecast.io.

Current aviation weather report (METAR) for Asyut International Airport

Report is more than 6 hours old.

2022/11/14 15:00 (retrieved 2 years ago)

HEAT 141500Z 35012KT CAVOK 28/15 Q1018

Aviation forecast (TAF) for Asyut International Airport

Forecast is more than 12 hours old.

2023/02/22 18:00 (retrieved 1 year ago)

TAF HEAT 221700Z 2218/2324 35009KT CAVOK